createdAt,value
2018-12-04T00:03:37.701Z,77.70
2018-12-04T00:08:41.652Z,78.36
2018-12-04T00:13:44.991Z,77.21
2018-12-04T00:18:48.353Z,76.84
2018-12-04T00:23:51.903Z,76.92
2018-12-04T00:28:55.344Z,76.48
2018-12-04T00:33:58.937Z,76.45
2018-12-04T00:39:02.970Z,76.68
2018-12-04T00:44:07.477Z,76.77
2018-12-04T00:49:11.019Z,76.97
2018-12-04T00:54:14.415Z,76.80
2018-12-04T00:59:17.829Z,76.02
2018-12-04T01:04:21.506Z,75.83
2018-12-04T01:10:01.782Z,75.90
2018-12-04T01:15:05.185Z,75.71
2018-12-04T01:20:07.491Z,76.94
2018-12-04T01:25:09.843Z,77.84
2018-12-04T01:30:13.378Z,77.71
2018-12-04T01:35:15.674Z,78.51
2018-12-04T01:40:17.947Z,78.25
2018-12-04T01:45:20.127Z,78.10
2018-12-04T01:50:22.398Z,78.20
2018-12-04T01:55:25.706Z,77.95
2018-12-04T02:00:28.221Z,78.12
2018-12-04T02:05:30.283Z,77.62
2018-12-04T02:10:32.795Z,77.59
2018-12-04T02:15:35.179Z,78.21
2018-12-04T02:20:37.335Z,78.37
2018-12-04T02:25:39.426Z,78.54
2018-12-04T02:30:41.733Z,78.07
2018-12-04T02:35:44.230Z,78.61
2018-12-04T02:40:46.362Z,78.60
2018-12-04T02:45:49.049Z,77.62
2018-12-04T02:50:51.317Z,76.85
2018-12-04T02:55:54.307Z,76.57
2018-12-04T03:00:56.838Z,80.92
2018-12-04T03:05:58.935Z,81.61
2018-12-04T03:11:01.447Z,82.78
2018-12-04T03:16:03.729Z,81.37
2018-12-04T03:21:06.029Z,81.52
2018-12-04T03:26:08.247Z,82.25
2018-12-04T03:31:11.376Z,83.15
2018-12-04T03:36:14.414Z,83.86
2018-12-04T03:41:16.791Z,81.70
2018-12-04T03:46:18.974Z,80.82
2018-12-04T03:51:21.295Z,81.57
2018-12-04T03:56:23.534Z,79.70
2018-12-04T04:01:25.599Z,78.62
2018-12-04T04:06:27.681Z,78.93
2018-12-04T04:11:29.978Z,78.82
2018-12-04T04:16:32.162Z,79.12
2018-12-04T04:21:35.069Z,80.54
2018-12-04T04:26:37.310Z,79.94
2018-12-04T04:31:39.856Z,79.95
2018-12-04T04:36:42.523Z,80.08
2018-12-04T04:41:45.133Z,79.18
2018-12-04T04:46:47.212Z,78.43
2018-12-04T04:51:49.387Z,78.56
2018-12-04T04:56:53.792Z,78.84
2018-12-04T05:01:55.914Z,79.24
2018-12-04T05:06:58.108Z,79.36
2018-12-04T05:12:00.396Z,79.16
2018-12-04T05:17:03.869Z,79.44
2018-12-04T05:22:09.728Z,78.88
2018-12-04T05:27:13.464Z,78.63
2018-12-04T05:32:24.018Z,78.68
2018-12-04T05:37:26.065Z,78.19
2018-12-04T05:42:28.999Z,78.71
2018-12-04T05:47:31.740Z,78.20
2018-12-04T05:52:33.786Z,78.55
2018-12-04T05:57:37.119Z,77.57
2018-12-04T06:02:39.266Z,77.52
2018-12-04T06:07:41.383Z,76.74
2018-12-04T06:12:43.880Z,76.86
2018-12-04T06:17:46.185Z,76.71
2018-12-04T06:22:48.530Z,76.79
2018-12-04T06:27:50.627Z,76.82
2018-12-04T06:32:53.147Z,76.18
2018-12-04T06:37:55.219Z,76.54
2018-12-04T06:48:06.394Z,76.59
2018-12-04T06:53:08.894Z,76.02
2018-12-04T06:58:11.935Z,76.54
2018-12-04T07:03:14.123Z,76.76
2018-12-04T07:08:16.339Z,77.03
2018-12-04T07:13:18.671Z,77.40
2018-12-04T07:18:21.155Z,78.25
2018-12-04T07:23:23.219Z,77.26
2018-12-04T07:28:26.108Z,75.87
2018-12-04T07:33:28.414Z,76.84
2018-12-04T07:38:30.631Z,76.77
2018-12-04T07:43:33.095Z,75.99
2018-12-04T07:48:35.280Z,76.47
2018-12-04T07:53:37.486Z,74.05
2018-12-04T07:58:39.711Z,73.69
2018-12-04T08:03:41.807Z,73.53
2018-12-04T08:08:43.970Z,73.60
2018-12-04T08:13:46.091Z,73.71
2018-12-04T08:18:48.304Z,73.07
2018-12-04T08:23:50.504Z,74.18
2018-12-04T08:28:52.616Z,74.41
2018-12-04T08:33:54.864Z,73.46
2018-12-04T08:38:57.154Z,73.15
2018-12-04T08:43:59.236Z,71.96
2018-12-04T08:49:01.299Z,72.10
2018-12-04T08:54:03.580Z,70.89
2018-12-04T08:59:05.872Z,69.98
2018-12-04T09:04:08.174Z,70.35
2018-12-04T09:09:11.283Z,70.61
2018-12-04T09:14:13.703Z,69.97
2018-12-04T09:19:16.067Z,68.70
2018-12-04T09:24:18.238Z,69.28
2018-12-04T09:29:20.588Z,68.55
2018-12-04T09:34:22.785Z,68.22
2018-12-04T09:39:25.247Z,69.20
2018-12-04T09:44:34.770Z,67.72
2018-12-04T09:49:37.194Z,66.78
2018-12-04T09:54:39.277Z,67.57
2018-12-04T09:59:41.422Z,67.56
2018-12-04T10:04:43.722Z,66.87
2018-12-04T10:09:45.800Z,64.90
2018-12-04T10:14:47.898Z,65.78
2018-12-04T10:19:50.231Z,64.66
2018-12-04T10:24:52.693Z,63.97
2018-12-04T10:29:54.897Z,65.14
2018-12-04T10:34:57.339Z,64.34
2018-12-04T10:39:59.451Z,64.96
2018-12-04T10:45:01.618Z,65.18
2018-12-04T10:50:06.258Z,66.59
2018-12-04T10:55:08.672Z,66.04
2018-12-04T11:00:15.631Z,64.83
2018-12-04T11:05:17.989Z,65.03
2018-12-04T11:10:20.174Z,64.95
2018-12-04T11:15:22.416Z,64.77
2018-12-04T11:20:24.667Z,62.38
2018-12-04T11:25:26.883Z,63.62
2018-12-04T11:30:29.022Z,64.28
2018-12-04T11:35:31.542Z,64.18
2018-12-04T11:40:33.770Z,63.68
2018-12-04T11:45:35.943Z,61.91
2018-12-04T11:50:38.058Z,60.54
2018-12-04T11:55:40.986Z,59.85
2018-12-04T12:00:43.370Z,61.61
2018-12-04T12:05:45.543Z,60.70
2018-12-04T12:10:49.776Z,60.63
2018-12-04T12:15:52.063Z,59.03
2018-12-04T12:20:54.226Z,59.36
2018-12-04T12:25:56.560Z,60.11
2018-12-04T12:30:59.019Z,56.13
2018-12-04T12:36:01.352Z,57.31
2018-12-04T12:41:03.679Z,59.82
2018-12-04T12:46:05.802Z,60.56
2018-12-04T12:51:09.523Z,60.89
2018-12-04T12:56:12.066Z,58.39
2018-12-04T13:01:14.310Z,58.17
2018-12-04T13:06:16.583Z,57.83
2018-12-04T13:11:18.778Z,57.87
2018-12-04T13:16:26.021Z,55.17
2018-12-04T13:21:28.090Z,56.02
2018-12-04T13:26:30.284Z,55.28
2018-12-04T13:31:33.347Z,56.56
2018-12-04T13:36:35.528Z,56.17
2018-12-04T13:41:37.779Z,57.26
2018-12-04T13:46:39.831Z,56.34
2018-12-04T13:51:42.003Z,57.87
2018-12-04T13:56:44.212Z,57.44
2018-12-04T14:01:46.418Z,56.62
2018-12-04T14:06:49.104Z,56.69
2018-12-04T14:11:51.376Z,60.33
2018-12-04T14:17:00.529Z,59.00
2018-12-04T14:22:02.811Z,58.08
2018-12-04T14:27:05.037Z,58.82
2018-12-04T14:32:07.307Z,59.45
2018-12-04T14:37:09.529Z,60.62
2018-12-04T14:42:12.519Z,59.71
2018-12-04T14:47:14.717Z,60.38
2018-12-04T14:52:16.945Z,60.44
2018-12-04T14:57:19.431Z,60.83
2018-12-04T15:02:21.944Z,60.54
2018-12-04T15:07:24.277Z,60.46
2018-12-04T15:12:26.682Z,60.37
2018-12-04T15:17:28.883Z,61.30
2018-12-04T15:22:30.963Z,61.61
2018-12-04T15:27:33.311Z,61.89
2018-12-04T15:32:35.685Z,61.90
2018-12-04T15:37:44.899Z,61.96
2018-12-04T15:42:47.111Z,62.86
2018-12-04T15:47:49.407Z,63.69
2018-12-04T15:52:51.482Z,64.21
2018-12-04T15:57:53.786Z,64.66
2018-12-04T16:02:56.064Z,64.86
2018-12-04T16:07:58.226Z,65.13
2018-12-04T16:13:00.438Z,64.92
2018-12-04T16:18:02.670Z,65.62
2018-12-04T16:23:04.862Z,65.99
2018-12-04T16:28:06.910Z,66.22
2018-12-04T16:33:09.011Z,65.83
2018-12-04T16:38:11.196Z,65.14
2018-12-04T16:43:13.863Z,65.09
2018-12-04T16:48:17.295Z,65.14
2018-12-04T16:53:19.360Z,64.92
2018-12-04T16:58:21.414Z,63.74
2018-12-04T17:03:23.522Z,64.73
2018-12-04T17:08:25.983Z,64.66
2018-12-04T17:13:28.044Z,64.79
2018-12-04T17:18:37.452Z,65.57
2018-12-04T17:23:34.338Z,65.68
2018-12-04T17:28:36.514Z,65.31
2018-12-04T17:33:38.765Z,65.12
2018-12-04T17:38:40.887Z,65.10
2018-12-04T17:43:43.086Z,64.61
2018-12-04T17:48:45.282Z,63.94
2018-12-04T17:53:47.456Z,64.60
2018-12-04T17:58:51.543Z,66.14
2018-12-04T18:04:00.847Z,67.04
2018-12-04T18:09:05.867Z,67.18
2018-12-04T18:14:09.955Z,67.03
2018-12-04T18:19:12.282Z,67.94
2018-12-04T18:24:16.420Z,67.44
2018-12-04T18:29:19.131Z,68.23
2018-12-04T18:34:22.367Z,68.62
2018-12-04T18:39:24.425Z,68.37
2018-12-04T18:44:26.804Z,68.22
2018-12-04T18:49:29.050Z,68.20
2018-12-04T18:54:31.358Z,68.78
2018-12-04T18:59:33.418Z,68.47
2018-12-04T19:04:35.587Z,69.12
2018-12-04T19:09:37.650Z,68.80
2018-12-04T19:14:39.880Z,68.47
2018-12-04T19:19:41.938Z,68.58
2018-12-04T19:24:44.130Z,68.69
2018-12-04T19:29:46.522Z,69.09
2018-12-04T19:34:49.175Z,68.90
2018-12-04T19:39:51.469Z,69.20
2018-12-04T19:44:53.699Z,69.09
2018-12-04T19:49:55.943Z,69.50
2018-12-04T19:54:58.337Z,69.70
2018-12-04T20:00:00.736Z,70.27
2018-12-04T20:05:03.248Z,69.57
2018-12-04T20:10:06.270Z,69.34
2018-12-04T20:15:09.020Z,68.52
2018-12-04T20:20:11.088Z,68.14
2018-12-04T20:25:13.293Z,68.86
2018-12-04T20:30:15.604Z,68.79
2018-12-04T20:35:17.698Z,68.63
2018-12-04T20:40:23.624Z,70.12
2018-12-04T20:45:26.050Z,71.55
2018-12-04T20:50:29.266Z,71.63
2018-12-04T20:55:31.438Z,72.06
2018-12-04T21:00:33.847Z,72.44
2018-12-04T21:05:36.196Z,71.77
2018-12-04T21:10:38.387Z,71.37
2018-12-04T21:15:40.567Z,71.81
2018-12-04T21:20:43.063Z,72.61
2018-12-04T21:25:45.283Z,73.12
2018-12-04T21:30:53.438Z,72.94
2018-12-04T21:36:08.585Z,73.42
2018-12-04T21:41:15.397Z,74.25
2018-12-04T21:48:29.233Z,74.10
2018-12-04T21:53:31.403Z,74.26
2018-12-04T21:58:33.554Z,74.21
2018-12-04T22:03:36.130Z,74.97
2018-12-04T22:08:38.336Z,75.54
2018-12-04T22:13:40.581Z,74.82
2018-12-04T22:18:42.940Z,74.90
2018-12-04T22:23:45.215Z,74.80
2018-12-04T22:28:47.645Z,74.81
2018-12-04T22:33:49.842Z,75.65
2018-12-04T22:38:52.155Z,76.38
2018-12-04T22:43:54.414Z,77.14
2018-12-04T22:48:56.877Z,77.77
2018-12-04T22:53:59.023Z,78.25
2018-12-04T22:59:01.322Z,78.26
2018-12-04T23:04:03.973Z,79.23
2018-12-04T23:09:09.577Z,78.91
2018-12-04T23:14:13.071Z,78.80
2018-12-04T23:19:15.374Z,79.25
2018-12-04T23:24:17.504Z,79.39
2018-12-04T23:29:19.882Z,78.89
2018-12-04T23:34:22.334Z,78.69
2018-12-04T23:39:24.479Z,79.32
2018-12-04T23:44:26.815Z,79.37
2018-12-04T23:49:29.588Z,79.81
2018-12-04T23:54:31.918Z,79.73
2018-12-04T23:59:34.369Z,80.17
